createdAt,value
2023-04-26T00:00:09.519Z,4.11
2023-04-26T00:03:05.327Z,4.00
2023-04-26T00:05:38.871Z,4.12
2023-04-26T00:08:32.564Z,4.01
2023-04-26T00:11:04.916Z,3.85
2023-04-26T00:13:38.833Z,4.00
2023-04-26T00:16:14.054Z,3.81
2023-04-26T00:18:46.984Z,3.81
2023-04-26T00:21:19.218Z,3.88
2023-04-26T00:23:52.041Z,3.80
2023-04-26T00:26:24.972Z,3.78
2023-04-26T00:29:00.444Z,3.74
2023-04-26T00:31:35.633Z,3.66
2023-04-26T00:34:08.293Z,3.84
2023-04-26T00:36:40.590Z,3.65
2023-04-26T00:39:13.307Z,3.66
2023-04-26T00:41:45.503Z,3.60
2023-04-26T00:44:17.820Z,3.54
2023-04-26T00:46:53.573Z,3.52
2023-04-26T00:49:31.489Z,3.44
2023-04-26T00:52:03.644Z,3.39
2023-04-26T00:54:36.426Z,3.46
2023-04-26T00:57:10.961Z,3.40
2023-04-26T00:59:43.295Z,3.45
2023-04-26T01:02:18.180Z,3.37
2023-04-26T01:04:50.971Z,3.34
2023-04-26T01:07:23.337Z,3.36
2023-04-26T01:09:56.327Z,3.30
2023-04-26T01:12:28.258Z,3.30
2023-04-26T01:15:15.682Z,3.30
2023-04-26T01:17:53.976Z,3.32
2023-04-26T01:20:26.630Z,3.27
2023-04-26T01:23:01.341Z,3.21
2023-04-26T01:25:35.070Z,3.34
2023-04-26T01:28:08.272Z,3.23
2023-04-26T01:30:40.810Z,3.19
2023-04-26T01:33:12.789Z,3.25
2023-04-26T01:35:45.172Z,3.19
2023-04-26T01:38:20.688Z,3.13
2023-04-26T01:40:53.619Z,3.16
2023-04-26T01:43:25.561Z,3.05
2023-04-26T01:45:57.845Z,3.07
2023-04-26T01:48:30.023Z,3.03
2023-04-26T01:51:02.225Z,3.08
2023-04-26T01:53:37.056Z,3.01
2023-04-26T01:56:10.296Z,2.99
2023-04-26T01:58:44.303Z,3.04
2023-04-26T02:01:16.979Z,3.00
2023-04-26T02:03:49.782Z,2.96
2023-04-26T02:06:22.376Z,2.91
2023-04-26T02:08:57.349Z,2.88
2023-04-26T02:11:29.728Z,2.90
2023-04-26T02:14:02.739Z,2.82
2023-04-26T02:16:35.070Z,2.80
2023-04-26T02:19:11.429Z,2.84
2023-04-26T02:21:58.414Z,2.89
2023-04-26T02:24:33.514Z,2.69
2023-04-26T02:27:06.281Z,2.68
2023-04-26T02:29:44.237Z,2.76
2023-04-26T02:32:31.852Z,2.74
2023-04-26T02:35:04.083Z,2.63
2023-04-26T02:37:37.717Z,2.74
2023-04-26T02:40:14.274Z,2.61
2023-04-26T02:42:46.511Z,2.68
2023-04-26T02:45:19.001Z,2.59
2023-04-26T02:47:51.271Z,2.65
2023-04-26T02:50:24.510Z,2.59
2023-04-26T02:52:56.681Z,2.57
2023-04-26T02:58:22.809Z,2.58
2023-04-26T03:00:55.577Z,2.55
2023-04-26T03:03:29.148Z,2.49
2023-04-26T03:06:02.049Z,2.52
2023-04-26T03:08:35.536Z,2.57
2023-04-26T03:11:11.146Z,2.46
2023-04-26T03:13:43.202Z,2.47
2023-04-26T03:19:28.619Z,2.36
2023-04-26T03:22:01.743Z,2.39
2023-04-26T03:24:34.074Z,2.43
2023-04-26T03:27:09.382Z,2.38
2023-04-26T03:29:43.913Z,2.46
2023-04-26T03:32:16.829Z,2.33
2023-04-26T03:34:50.308Z,2.33
2023-04-26T03:37:22.583Z,2.28
2023-04-26T03:39:54.711Z,2.34
2023-04-26T03:42:29.678Z,2.33
2023-04-26T03:45:01.680Z,2.31
2023-04-26T03:47:34.035Z,2.33
2023-04-26T03:50:06.993Z,2.32
2023-04-26T03:52:39.131Z,2.35
2023-04-26T03:55:13.200Z,2.26
2023-04-26T03:57:48.237Z,2.32
2023-04-26T04:00:20.222Z,2.29
2023-04-26T04:02:52.541Z,2.29
2023-04-26T04:05:24.497Z,2.26
2023-04-26T04:07:56.907Z,2.38
2023-04-26T04:10:28.990Z,2.34
2023-04-26T04:13:04.107Z,2.43
2023-04-26T04:15:36.074Z,2.37
2023-04-26T04:18:08.405Z,2.38
2023-04-26T04:20:40.418Z,2.29
2023-04-26T04:23:12.720Z,2.39
2023-04-26T04:25:44.515Z,2.36
2023-04-26T04:28:19.740Z,2.50
2023-04-26T04:30:51.648Z,2.59
2023-04-26T04:33:24.058Z,2.46
2023-04-26T04:35:56.340Z,2.60
2023-04-26T04:38:29.829Z,2.50
2023-04-26T04:41:01.776Z,2.47
2023-04-26T04:43:36.828Z,2.59
2023-04-26T04:46:10.089Z,2.48
2023-04-26T04:48:45.702Z,2.53
2023-04-26T04:51:17.556Z,2.71
2023-04-26T04:53:50.315Z,2.69
2023-04-26T04:56:38.217Z,2.74
2023-04-26T04:59:13.584Z,2.82
2023-04-26T05:01:45.625Z,2.85
2023-04-26T05:04:18.040Z,2.84
2023-04-26T07:54:00.757Z,8.40
2023-04-26T07:56:47.473Z,7.95
2023-04-26T07:59:25.532Z,8.33
2023-04-26T08:01:58.811Z,7.18
2023-04-26T08:04:37.718Z,7.51
2023-04-26T08:07:11.528Z,7.75
2023-04-26T08:09:43.579Z,7.60
2023-04-26T08:12:19.594Z,7.35
2023-04-26T08:14:52.913Z,7.22
2023-04-26T08:17:29.618Z,6.96
2023-04-26T08:20:06.295Z,7.05
2023-04-26T08:22:41.836Z,7.62
2023-04-26T08:25:14.399Z,7.62
2023-04-26T08:27:50.311Z,8.10
2023-04-26T08:30:23.039Z,8.29
2023-04-26T08:32:55.747Z,8.33
2023-04-26T08:35:34.196Z,7.94
2023-04-26T08:38:07.717Z,7.30
2023-04-26T08:40:40.715Z,7.35
2023-04-26T08:43:19.441Z,6.98
2023-04-26T08:45:52.142Z,6.95
2023-04-26T08:48:26.434Z,7.31
2023-04-26T08:50:59.238Z,8.20
2023-04-26T08:53:34.281Z,8.81
2023-04-26T08:56:08.362Z,10.06
2023-04-26T08:58:45.155Z,10.00
2023-04-26T09:01:32.483Z,10.34
2023-04-26T09:04:08.921Z,10.13
2023-04-26T09:06:42.122Z,9.37
2023-04-26T09:09:17.316Z,8.51
2023-04-26T09:12:02.160Z,8.68
2023-04-26T09:14:37.962Z,8.68
2023-04-26T09:21:22.555Z,8.75
2023-04-26T09:24:04.836Z,8.17
2023-04-26T09:26:37.513Z,8.73
2023-04-26T09:29:17.977Z,8.91
2023-04-26T09:31:53.857Z,8.81
2023-04-26T09:34:26.673Z,10.09
2023-04-26T09:37:01.123Z,10.33
2023-04-26T09:39:36.593Z,9.52
2023-04-26T09:42:09.516Z,10.24
2023-04-26T09:44:42.521Z,9.68
2023-04-26T09:47:17.821Z,10.61
2023-04-26T09:50:18.341Z,10.92
2023-04-26T09:52:52.593Z,12.43
2023-04-26T09:55:35.271Z,11.84
2023-04-26T09:58:17.274Z,11.42
2023-04-26T10:00:54.131Z,9.60
2023-04-26T10:03:30.658Z,9.17
2023-04-26T10:06:03.715Z,8.67
2023-04-26T10:08:36.831Z,8.62
2023-04-26T10:11:11.956Z,9.07
2023-04-26T10:13:45.356Z,9.49
2023-04-26T10:16:18.015Z,10.46
2023-04-26T10:18:52.894Z,10.49
2023-04-26T10:21:32.115Z,10.23
2023-04-26T10:24:04.852Z,9.01
2023-04-26T10:26:53.621Z,8.47
2023-04-26T10:29:26.367Z,8.56
2023-04-26T10:32:17.283Z,8.46
2023-04-26T10:35:14.105Z,8.48
2023-04-26T10:38:19.438Z,8.48
2023-04-26T10:40:53.403Z,8.32
2023-04-26T10:43:34.114Z,8.02
2023-04-26T10:46:36.870Z,8.43
2023-04-26T10:49:19.431Z,8.71
2023-04-26T10:52:21.047Z,8.79
2023-04-26T10:55:00.637Z,8.62
2023-04-26T10:57:51.559Z,9.04
2023-04-26T11:00:34.179Z,9.12
2023-04-26T11:03:10.027Z,9.29
2023-04-26T11:05:56.301Z,9.27
2023-04-26T11:08:32.795Z,9.43
2023-04-26T11:11:21.675Z,9.53
2023-04-26T11:13:53.658Z,8.62
2023-04-26T11:16:27.549Z,9.09
2023-04-26T11:19:00.393Z,9.29
2023-04-26T11:21:33.121Z,9.01
2023-04-26T11:24:10.077Z,9.06
2023-04-26T11:26:42.812Z,9.76
2023-04-26T11:32:40.347Z,9.97
2023-04-26T11:35:13.640Z,10.40
2023-04-26T11:37:49.863Z,10.57
2023-04-26T11:40:31.451Z,10.70
2023-04-26T11:43:06.095Z,10.56
2023-04-26T11:45:42.346Z,10.05
2023-04-26T11:48:17.725Z,8.99
2023-04-26T11:50:51.192Z,9.20
2023-04-26T11:53:23.018Z,9.21
2023-04-26T11:55:58.890Z,9.28
2023-04-26T11:58:31.509Z,9.44
2023-04-26T12:01:05.855Z,9.82
2023-04-26T12:03:40.434Z,9.92
2023-04-26T12:06:15.877Z,10.11
2023-04-26T12:08:54.707Z,10.25
2023-04-26T12:11:32.613Z,9.87
2023-04-26T12:14:05.172Z,9.75
2023-04-26T12:16:40.457Z,9.95
2023-04-26T12:19:26.901Z,9.65
2023-04-26T12:22:01.978Z,9.64
2023-04-26T12:24:37.954Z,9.78
2023-04-26T12:27:23.526Z,9.78
2023-04-26T12:29:57.936Z,8.96
2023-04-26T12:32:34.502Z,8.51
2023-04-26T12:35:07.679Z,8.52
2023-04-26T12:37:40.577Z,8.73
2023-04-26T12:40:14.054Z,8.72
2023-04-26T12:42:56.593Z,8.62
2023-04-26T12:45:31.661Z,8.63
2023-04-26T12:48:08.293Z,8.83
2023-04-26T12:50:51.218Z,8.97
2023-04-26T12:53:28.033Z,9.34
2023-04-26T12:55:59.631Z,9.52
2023-04-26T12:58:34.362Z,9.40
2023-04-26T13:01:06.600Z,9.90
2023-04-26T13:03:39.711Z,9.99
2023-04-26T13:06:12.872Z,10.44
2023-04-26T13:08:45.799Z,10.81
2023-04-26T13:11:18.795Z,11.08
2023-04-26T13:13:54.313Z,10.95
2023-04-26T13:16:26.905Z,10.20
2023-04-26T13:18:59.779Z,10.38
2023-04-26T13:21:34.711Z,10.43
2023-04-26T13:24:10.735Z,10.46
2023-04-26T13:26:43.319Z,10.05
2023-04-26T13:29:18.831Z,9.81
2023-04-26T13:31:51.384Z,9.55
2023-04-26T13:34:25.555Z,9.27
2023-04-26T13:36:58.841Z,9.47
2023-04-26T13:39:32.250Z,9.67
2023-04-26T13:42:06.208Z,9.20
2023-04-26T13:44:42.000Z,9.44
2023-04-26T13:47:15.599Z,9.47
2023-04-26T13:49:49.602Z,9.27
2023-04-26T13:52:22.237Z,9.01
2023-04-26T13:54:55.111Z,8.72
2023-04-26T13:57:27.471Z,9.12
2023-04-26T14:00:04.591Z,9.43
2023-04-26T14:02:37.385Z,9.54
2023-04-26T14:05:11.674Z,9.75
2023-04-26T14:07:44.950Z,9.92
2023-04-26T14:10:17.618Z,9.61
2023-04-26T14:12:50.062Z,9.35
2023-04-26T14:15:41.373Z,9.16
2023-04-26T14:18:14.110Z,9.08
2023-04-26T14:20:47.217Z,9.33
2023-04-26T14:23:19.341Z,9.62
2023-04-26T14:25:58.225Z,9.78
2023-04-26T14:28:32.617Z,10.11
2023-04-26T14:31:07.991Z,10.37
2023-04-26T14:33:40.989Z,10.63
2023-04-26T14:36:13.707Z,10.79
2023-04-26T14:38:47.416Z,10.95
2023-04-26T14:41:20.653Z,10.74
2023-04-26T14:43:53.937Z,10.25
2023-04-26T14:46:29.807Z,9.83
2023-04-26T14:49:03.105Z,9.94
2023-04-26T14:51:36.137Z,9.72
2023-04-26T14:54:09.377Z,9.87
2023-04-26T14:56:59.178Z,9.92
2023-04-26T14:59:32.376Z,9.79
2023-04-26T15:02:08.381Z,9.82
2023-04-26T15:04:41.892Z,9.77
2023-04-26T15:07:24.930Z,9.99
2023-04-26T15:10:05.418Z,9.99
2023-04-26T15:12:38.580Z,9.69
2023-04-26T15:15:12.668Z,10.05
2023-04-26T15:17:48.244Z,10.43
2023-04-26T15:20:21.670Z,10.24
2023-04-26T15:22:54.341Z,10.18
2023-04-26T15:25:27.947Z,10.13
2023-04-26T15:28:00.977Z,10.11
2023-04-26T15:30:34.295Z,10.00
2023-04-26T15:33:10.947Z,9.94
2023-04-26T15:35:44.097Z,9.78
2023-04-26T15:38:17.140Z,9.89
2023-04-26T15:40:51.251Z,9.97
2023-04-26T15:43:24.261Z,9.96
2023-04-26T15:45:57.624Z,9.81
2023-04-26T15:48:33.261Z,9.83
2023-04-26T15:51:09.091Z,9.87
2023-04-26T15:53:43.855Z,10.01
2023-04-26T15:56:18.979Z,9.89
2023-04-26T15:58:52.301Z,9.86
2023-04-26T16:01:25.269Z,9.65
2023-04-26T16:04:00.800Z,9.67
2023-04-26T16:06:38.640Z,9.73
2023-04-26T16:09:24.952Z,9.72
2023-04-26T16:11:59.724Z,9.70
2023-04-26T16:14:34.278Z,9.64
2023-04-26T16:17:07.345Z,9.37
2023-04-26T16:19:49.526Z,9.37
2023-04-26T16:22:24.671Z,9.12
2023-04-26T16:25:00.130Z,9.13
2023-04-26T16:27:36.973Z,9.16
2023-04-26T16:30:13.596Z,9.21
2023-04-26T16:32:46.416Z,9.04
2023-04-26T16:35:21.975Z,8.87
2023-04-26T16:37:56.894Z,9.19
2023-04-26T16:40:31.558Z,9.12
2023-04-26T16:43:42.810Z,9.22
2023-04-26T16:46:21.176Z,9.14
2023-04-26T16:48:57.278Z,9.03
2023-04-26T16:51:32.801Z,9.07
2023-04-26T16:54:05.592Z,9.16
2023-04-26T16:56:38.355Z,9.18
2023-04-26T16:59:12.551Z,9.19
2023-04-26T17:01:45.200Z,9.26
2023-04-26T17:04:18.735Z,9.16
2023-04-26T17:06:55.032Z,9.13
2023-04-26T17:09:28.120Z,9.27
2023-04-26T17:12:03.522Z,9.30
2023-04-26T17:14:36.604Z,9.28
2023-04-26T17:17:08.852Z,9.50
2023-04-26T17:19:42.387Z,9.38
2023-04-26T17:22:18.705Z,9.09
2023-04-26T17:24:53.369Z,8.95
2023-04-26T17:27:27.526Z,8.81
2023-04-26T17:30:00.728Z,8.68
2023-04-26T17:32:34.025Z,8.69
2023-04-26T17:35:08.134Z,8.65
2023-04-26T17:37:46.927Z,8.58
2023-04-26T17:40:21.000Z,8.55
2023-04-26T17:42:54.229Z,8.47
2023-04-26T17:45:28.355Z,8.49
2023-04-26T17:48:00.646Z,8.30
2023-04-26T17:50:33.651Z,8.43
2023-04-26T17:53:09.877Z,8.33
2023-04-26T17:55:48.588Z,8.37
2023-04-26T17:58:21.579Z,8.26
2023-04-26T18:00:57.750Z,8.23
2023-04-26T18:03:32.369Z,8.10
2023-04-26T18:06:06.276Z,8.07
2023-04-26T18:08:50.324Z,8.10
2023-04-26T18:11:27.524Z,8.00
2023-04-26T18:14:00.184Z,7.99
2023-04-26T18:16:33.054Z,7.96
2023-04-26T18:19:06.925Z,7.93
2023-04-26T18:21:43.674Z,7.78
2023-04-26T18:24:18.584Z,7.80
2023-04-26T18:26:51.965Z,7.70
2023-04-26T18:29:24.432Z,7.68
2023-04-26T18:31:57.317Z,7.62
2023-04-26T18:34:30.145Z,7.65
2023-04-26T18:37:03.277Z,7.61
2023-04-26T18:39:38.914Z,7.76
2023-04-26T18:42:12.899Z,7.55
2023-04-26T18:44:45.764Z,7.52
2023-04-26T18:47:18.733Z,7.59
2023-04-26T18:49:51.570Z,7.54
2023-04-26T18:52:24.304Z,7.62
2023-04-26T18:55:00.848Z,7.60
2023-04-26T18:57:33.453Z,7.62
2023-04-26T19:00:07.005Z,7.64
2023-04-26T19:02:41.603Z,7.74
2023-04-26T19:05:15.153Z,7.60
2023-04-26T19:07:49.088Z,7.67
2023-04-26T19:10:24.926Z,7.75
2023-04-26T19:12:58.214Z,7.63
2023-04-26T19:15:31.714Z,7.51
2023-04-26T19:18:06.341Z,7.61
2023-04-26T19:20:38.987Z,7.34
2023-04-26T19:23:13.336Z,7.24
2023-04-26T19:25:48.791Z,7.20
2023-04-26T19:28:21.611Z,7.22
2023-04-26T19:30:56.453Z,7.20
2023-04-26T19:33:30.928Z,7.34
2023-04-26T19:36:03.649Z,7.30
2023-04-26T19:38:38.457Z,7.08
2023-04-26T19:41:14.673Z,6.97
2023-04-26T19:43:48.218Z,7.10
2023-04-26T19:46:21.479Z,7.27
2023-04-26T19:48:56.952Z,7.31
2023-04-26T19:51:29.754Z,7.22
2023-04-26T19:54:03.369Z,7.27
2023-04-26T19:56:39.129Z,7.10
2023-04-26T19:59:14.190Z,7.05
2023-04-26T20:01:46.682Z,7.12
2023-04-26T20:04:22.505Z,6.99
2023-04-26T20:06:55.199Z,6.87
2023-04-26T20:09:28.129Z,6.99
2023-04-26T20:12:05.428Z,6.86
2023-04-26T20:14:38.091Z,6.84
2023-04-26T20:17:14.968Z,6.90
2023-04-26T20:19:51.758Z,6.92
2023-04-26T20:22:24.033Z,6.89
2023-04-26T20:24:56.602Z,6.65
2023-04-26T20:27:32.688Z,6.65
2023-04-26T20:30:06.659Z,6.81
2023-04-26T20:32:39.849Z,6.80
2023-04-26T20:35:14.247Z,6.85
2023-04-26T20:37:46.853Z,6.83
2023-04-26T20:40:22.534Z,6.81
2023-04-26T20:42:59.266Z,6.81
2023-04-26T20:45:32.376Z,6.80
2023-04-26T20:48:05.124Z,6.80
2023-04-26T20:50:38.603Z,6.81
2023-04-26T20:53:13.166Z,6.83
2023-04-26T20:55:46.499Z,6.76
2023-04-26T20:58:21.288Z,6.76
2023-04-26T21:01:07.805Z,6.73
2023-04-26T21:09:27.753Z,6.59
2023-04-26T21:12:02.578Z,6.63
2023-04-26T21:14:52.568Z,6.73
2023-04-26T21:17:26.947Z,6.79
2023-04-26T21:20:01.929Z,6.84
2023-04-26T21:22:35.325Z,6.88
2023-04-26T21:25:10.011Z,6.77
2023-04-26T21:27:43.851Z,6.81
2023-04-26T21:30:39.730Z,6.83
2023-04-26T21:33:16.511Z,6.91
2023-04-26T21:36:16.845Z,6.93
2023-04-26T21:45:00.023Z,6.74
2023-04-26T21:48:03.100Z,6.76
2023-04-26T21:53:56.173Z,6.67
2023-04-26T21:56:29.970Z,6.70
2023-04-26T21:59:16.150Z,6.70
2023-04-26T22:01:57.272Z,6.63
2023-04-26T22:04:37.892Z,6.59
2023-04-26T22:07:20.029Z,6.70
2023-04-26T22:10:05.050Z,6.70
2023-04-26T22:12:41.016Z,6.85
2023-04-26T22:15:15.808Z,6.83
2023-04-26T22:17:56.626Z,6.72
2023-04-26T22:20:34.749Z,6.76
2023-04-26T22:23:10.926Z,6.95
2023-04-26T22:25:48.145Z,6.66
2023-04-26T22:28:21.907Z,6.86
2023-04-26T22:31:09.371Z,7.06
2023-04-26T22:34:13.540Z,6.95
2023-04-26T22:37:33.269Z,7.04
2023-04-26T22:40:10.378Z,7.06
2023-04-26T22:42:45.292Z,7.04
2023-04-26T22:45:17.900Z,6.89
2023-04-26T22:47:51.293Z,6.90
2023-04-26T22:50:24.230Z,6.78
2023-04-26T22:53:01.209Z,6.73
2023-04-26T22:55:35.605Z,6.83
2023-04-26T22:58:14.586Z,6.94
2023-04-26T23:00:48.798Z,6.91
2023-04-26T23:03:22.852Z,6.69
2023-04-26T23:05:56.231Z,6.61
2023-04-26T23:08:34.227Z,6.70
2023-04-26T23:11:12.070Z,6.61
2023-04-26T23:13:45.289Z,6.75
2023-04-26T23:16:18.452Z,6.55
2023-04-26T23:18:56.029Z,6.65
2023-04-26T23:21:30.851Z,6.62
2023-04-26T23:24:08.248Z,6.56
2023-04-26T23:26:41.868Z,6.57
2023-04-26T23:29:18.713Z,6.56
2023-04-26T23:32:01.429Z,6.58
2023-04-26T23:34:34.230Z,6.64
2023-04-26T23:37:07.728Z,6.56
2023-04-26T23:39:44.628Z,6.50
2023-04-26T23:42:17.089Z,6.45
2023-04-26T23:44:53.532Z,6.49
2023-04-26T23:47:32.434Z,6.52
2023-04-26T23:50:07.833Z,6.49
2023-04-26T23:52:40.694Z,6.54
2023-04-26T23:55:17.833Z,6.58
2023-04-26T23:58:01.681Z,6.50
